createdAt,value
2022-11-17T00:00:19.633Z,8.90
2022-11-17T00:01:19.541Z,10.00
2022-11-17T00:02:19.653Z,9.20
2022-11-17T00:03:19.524Z,10.20
2022-11-17T00:04:19.574Z,9.00
2022-11-17T00:05:19.509Z,9.30
2022-11-17T00:06:20.492Z,9.60
2022-11-17T00:07:19.491Z,8.10
2022-11-17T00:08:19.483Z,8.40
2022-11-17T00:09:19.464Z,8.30
2022-11-17T00:10:19.503Z,10.00
2022-11-17T00:11:19.403Z,9.60
2022-11-17T00:12:22.736Z,8.90
2022-11-17T00:13:19.374Z,8.20
2022-11-17T00:14:19.425Z,8.10
2022-11-17T00:15:19.373Z,9.50
2022-11-17T00:16:19.442Z,9.00
2022-11-17T00:17:19.322Z,8.90
2022-11-17T00:18:19.353Z,9.80
2022-11-17T00:19:19.300Z,6.60
2022-11-17T00:20:19.372Z,7.80
2022-11-17T00:21:19.300Z,8.30
2022-11-17T00:22:19.283Z,8.10
2022-11-17T00:23:19.242Z,9.10
2022-11-17T00:24:19.293Z,10.20
2022-11-17T00:25:19.220Z,7.10
2022-11-17T00:26:19.314Z,8.00
2022-11-17T00:27:19.212Z,9.00
2022-11-17T00:28:19.222Z,9.30
2022-11-17T00:29:19.172Z,7.10
2022-11-17T00:30:19.239Z,9.20
2022-11-17T00:31:19.162Z,7.50
2022-11-17T00:32:19.145Z,9.70
2022-11-17T00:33:19.134Z,8.40
2022-11-17T00:34:19.164Z,7.90
2022-11-17T00:35:19.092Z,11.10
2022-11-17T00:36:19.176Z,10.10
2022-11-17T00:37:19.064Z,6.60
2022-11-17T00:38:19.091Z,8.40
2022-11-17T00:39:19.071Z,8.30
2022-11-17T00:40:19.107Z,8.60
2022-11-17T00:41:19.011Z,7.50
2022-11-17T00:42:19.014Z,8.00
2022-11-17T00:43:18.981Z,7.60
2022-11-17T00:44:19.050Z,6.70
2022-11-17T00:45:18.986Z,7.70
2022-11-17T00:46:19.044Z,9.10
2022-11-17T00:47:18.931Z,9.50
2022-11-17T00:48:18.962Z,9.30
2022-11-17T00:49:18.901Z,11.00
2022-11-17T00:50:18.971Z,8.40
2022-11-17T00:51:18.902Z,8.00
2022-11-17T00:52:19.912Z,9.40
2022-11-17T00:53:18.854Z,8.20
2022-11-17T00:54:18.901Z,7.10
2022-11-17T00:55:18.853Z,9.10
2022-11-17T00:56:18.912Z,7.40
2022-11-17T00:57:18.828Z,7.10
2022-11-17T00:58:18.840Z,8.90
2022-11-17T00:59:18.775Z,7.00
2022-11-17T01:00:18.842Z,9.10
2022-11-17T01:01:18.760Z,9.80
2022-11-17T01:02:18.758Z,8.60
2022-11-17T01:03:18.741Z,8.10
2022-11-17T01:04:19.791Z,8.80
2022-11-17T01:05:18.817Z,9.10
2022-11-17T01:06:18.781Z,8.20
2022-11-17T01:07:18.916Z,7.90
2022-11-17T01:08:18.692Z,7.70
2022-11-17T01:09:18.673Z,8.60
2022-11-17T01:10:18.711Z,7.60
2022-11-17T01:11:18.797Z,8.20
2022-11-17T01:12:18.733Z,9.70
2022-11-17T01:13:18.591Z,8.50
2022-11-17T01:14:18.636Z,8.80
2022-11-17T01:15:18.601Z,9.20
2022-11-17T01:16:18.641Z,8.70
2022-11-17T01:17:18.539Z,7.80
2022-11-17T01:18:18.561Z,9.60
2022-11-17T01:19:18.510Z,8.10
2022-11-17T01:20:18.579Z,10.10
2022-11-17T01:21:18.502Z,8.90
2022-11-17T01:22:18.481Z,10.20
2022-11-17T01:23:18.465Z,8.40
2022-11-17T01:24:18.501Z,8.40
2022-11-17T01:25:18.432Z,8.10
2022-11-17T01:26:18.519Z,9.20
2022-11-17T01:27:18.439Z,9.20
2022-11-17T01:28:18.438Z,11.30
2022-11-17T01:29:18.390Z,9.10
2022-11-17T01:30:18.448Z,7.70
2022-11-17T01:31:18.350Z,8.40
2022-11-17T01:32:18.353Z,10.20
2022-11-17T01:33:18.370Z,9.30
2022-11-17T01:34:18.369Z,11.70
2022-11-17T01:35:18.310Z,8.90
2022-11-17T01:36:18.389Z,9.50
2022-11-17T01:37:18.270Z,8.20
2022-11-17T01:38:18.298Z,9.00
2022-11-17T01:39:18.288Z,8.50
2022-11-17T01:40:19.333Z,9.20
2022-11-17T01:41:18.219Z,11.00
2022-11-17T01:42:18.331Z,9.80
2022-11-17T01:43:18.199Z,8.70
2022-11-17T01:44:18.238Z,7.90
2022-11-17T01:45:18.188Z,9.80
2022-11-17T01:46:18.249Z,9.30
2022-11-17T01:47:18.147Z,8.30
2022-11-17T01:48:18.162Z,8.70
2022-11-17T01:49:18.118Z,9.80
2022-11-17T01:50:18.179Z,9.90
2022-11-17T01:51:18.121Z,9.00
2022-11-17T01:52:18.199Z,10.40
2022-11-17T01:53:18.067Z,11.10
2022-11-17T01:54:18.105Z,12.70
2022-11-17T01:55:18.040Z,14.20
2022-11-17T01:56:18.119Z,13.40
2022-11-17T01:57:18.028Z,8.70
2022-11-17T01:58:18.031Z,10.30
2022-11-17T01:59:17.986Z,8.50
2022-11-17T02:00:18.050Z,10.70
2022-11-17T02:01:17.966Z,7.90
2022-11-17T02:02:17.958Z,9.00
2022-11-17T02:03:17.976Z,9.00
2022-11-17T02:04:17.978Z,9.90
2022-11-17T02:05:17.898Z,8.90
2022-11-17T02:06:17.988Z,8.00
2022-11-17T02:07:17.952Z,9.10
2022-11-17T02:08:17.901Z,9.60
2022-11-17T02:09:17.888Z,9.30
2022-11-17T02:10:17.921Z,7.30
2022-11-17T02:11:17.828Z,9.00
2022-11-17T02:12:17.928Z,9.00
2022-11-17T02:13:17.797Z,8.20
2022-11-17T02:14:18.868Z,7.80
2022-11-17T02:15:18.091Z,10.40
2022-11-17T02:16:17.856Z,9.80
2022-11-17T02:17:17.758Z,10.30
2022-11-17T02:18:17.767Z,7.40
2022-11-17T02:19:17.727Z,11.10
2022-11-17T02:20:17.787Z,7.80
2022-11-17T02:21:17.727Z,9.50
2022-11-17T02:22:17.796Z,8.30
2022-11-17T02:23:17.687Z,9.20
2022-11-17T02:24:17.706Z,12.10
2022-11-17T02:25:19.011Z,7.30
2022-11-17T02:26:17.726Z,6.90
2022-11-17T02:27:17.648Z,8.10
2022-11-17T02:28:17.638Z,6.70
2022-11-17T02:29:17.586Z,8.90
2022-11-17T02:30:17.654Z,9.10
2022-11-17T02:31:17.566Z,9.20
2022-11-17T02:32:17.670Z,9.70
2022-11-17T02:33:17.555Z,10.70
2022-11-17T02:34:17.576Z,8.20
2022-11-17T02:35:17.511Z,8.00
2022-11-17T02:36:17.598Z,12.10
2022-11-17T02:37:17.485Z,8.50
2022-11-17T02:38:17.503Z,9.00
2022-11-17T02:39:17.485Z,8.40
2022-11-17T02:40:17.516Z,7.50
2022-11-17T02:41:17.458Z,12.60
2022-11-17T02:42:17.534Z,11.20
2022-11-17T02:43:17.406Z,9.10
2022-11-17T02:44:17.445Z,6.30
2022-11-17T02:45:17.411Z,9.30
2022-11-17T02:46:17.503Z,7.90
2022-11-17T02:47:17.347Z,7.90
2022-11-17T02:48:17.372Z,8.90
2022-11-17T02:49:17.323Z,8.10
2022-11-17T02:50:17.388Z,8.00
2022-11-17T02:51:17.356Z,7.70
2022-11-17T02:52:17.403Z,10.10
2022-11-17T02:53:17.274Z,7.50
2022-11-17T02:54:17.317Z,8.70
2022-11-17T02:55:17.252Z,6.90
2022-11-17T02:56:18.358Z,7.30
2022-11-17T02:57:17.243Z,7.90
2022-11-17T02:58:17.242Z,9.20
2022-11-17T02:59:17.196Z,7.10
2022-11-17T03:00:17.254Z,7.50
2022-11-17T03:01:17.205Z,8.60
2022-11-17T03:02:17.264Z,7.10
2022-11-17T03:03:17.155Z,9.60
2022-11-17T03:04:17.193Z,7.80
2022-11-17T03:05:17.114Z,6.20
2022-11-17T03:06:17.195Z,9.70
2022-11-17T03:07:17.135Z,8.80
2022-11-17T03:08:17.105Z,7.40
2022-11-17T03:09:17.074Z,8.80
2022-11-17T03:10:18.152Z,7.80
2022-11-17T03:11:17.040Z,8.30
2022-11-17T03:12:17.133Z,6.70
2022-11-17T03:13:17.005Z,8.00
2022-11-17T03:14:18.073Z,7.80
2022-11-17T03:15:17.003Z,8.50
2022-11-17T03:16:17.062Z,8.30
2022-11-17T03:17:16.965Z,7.60
2022-11-17T03:18:16.974Z,7.50
2022-11-17T03:19:16.935Z,10.20
2022-11-17T03:20:16.991Z,8.50
2022-11-17T03:21:16.932Z,6.60
2022-11-17T03:22:17.002Z,7.80
2022-11-17T03:23:16.872Z,7.20
2022-11-17T03:24:16.914Z,9.50
2022-11-17T03:25:16.841Z,10.40
2022-11-17T03:26:16.963Z,8.50
2022-11-17T03:27:16.856Z,8.20
2022-11-17T03:28:16.844Z,9.10
2022-11-17T03:29:16.792Z,8.90
2022-11-17T03:30:16.853Z,9.50
2022-11-17T03:31:16.773Z,8.30
2022-11-17T03:32:16.880Z,8.70
2022-11-17T03:33:16.771Z,7.30
2022-11-17T03:34:16.783Z,9.60
2022-11-17T03:35:16.712Z,7.60
2022-11-17T03:36:16.797Z,7.90
2022-11-17T03:37:16.693Z,10.30
2022-11-17T03:38:17.732Z,8.90
2022-11-17T03:39:16.680Z,8.60
2022-11-17T03:40:16.718Z,9.00
2022-11-17T03:41:16.634Z,9.50
2022-11-17T03:42:16.673Z,8.70
2022-11-17T03:43:16.611Z,7.90
2022-11-17T03:44:16.659Z,8.30
2022-11-17T03:45:16.610Z,9.00
2022-11-17T03:46:17.587Z,8.10
2022-11-17T03:47:16.557Z,9.60
2022-11-17T03:48:17.599Z,7.60
2022-11-17T03:49:16.529Z,9.20
2022-11-17T03:50:16.590Z,8.10
2022-11-17T03:51:16.518Z,7.50
2022-11-17T03:52:16.503Z,9.40
2022-11-17T03:53:16.477Z,8.80
2022-11-17T03:54:16.520Z,8.60
2022-11-17T03:55:16.448Z,9.80
2022-11-17T03:56:18.530Z,8.50
2022-11-17T03:57:16.449Z,9.00
2022-11-17T03:58:16.442Z,10.60
2022-11-17T03:59:16.390Z,10.80
2022-11-17T04:00:16.462Z,8.10
2022-11-17T04:01:16.393Z,9.00
2022-11-17T04:02:16.373Z,9.60
2022-11-17T04:03:16.375Z,9.60
2022-11-17T04:04:16.404Z,10.00
2022-11-17T04:05:16.321Z,8.10
2022-11-17T04:06:16.420Z,9.90
2022-11-17T04:07:16.357Z,7.40
2022-11-17T04:08:16.310Z,8.70
2022-11-17T04:09:21.339Z,8.60
2022-11-17T04:10:17.254Z,9.60
2022-11-17T04:11:16.332Z,8.50
2022-11-17T04:12:16.221Z,8.30
2022-11-17T04:13:16.278Z,7.60
2022-11-17T04:14:16.189Z,10.30
2022-11-17T04:15:16.370Z,8.90
2022-11-17T04:16:16.167Z,8.60
2022-11-17T04:17:16.246Z,8.10
2022-11-17T04:18:16.137Z,8.70
2022-11-17T04:19:37.259Z,10.10
2022-11-17T04:20:16.121Z,7.40
2022-11-17T04:21:19.439Z,10.30
2022-11-17T04:22:16.079Z,9.30
2022-11-17T04:23:16.155Z,8.70
2022-11-17T04:24:16.060Z,7.10
2022-11-17T04:25:16.188Z,9.40
2022-11-17T04:26:16.030Z,7.30
2022-11-17T04:27:16.169Z,8.10
2022-11-17T04:28:15.999Z,9.70
2022-11-17T04:29:16.157Z,7.10
2022-11-17T04:30:16.012Z,7.80
2022-11-17T04:31:16.093Z,8.90
2022-11-17T04:32:15.948Z,8.70
2022-11-17T04:33:18.018Z,7.00
2022-11-17T04:34:15.927Z,7.90
2022-11-17T04:35:16.066Z,9.40
2022-11-17T04:36:15.899Z,8.70
2022-11-17T04:37:15.998Z,8.70
2022-11-17T04:38:15.870Z,7.50
2022-11-17T04:39:17.030Z,7.80
2022-11-17T04:40:15.841Z,10.90
2022-11-17T04:41:15.967Z,9.40
2022-11-17T04:42:15.818Z,6.70
2022-11-17T04:43:15.927Z,9.20
2022-11-17T04:44:15.788Z,7.70
2022-11-17T04:45:15.995Z,9.50
2022-11-17T04:46:15.768Z,7.30
2022-11-17T04:47:16.903Z,7.90
2022-11-17T04:48:15.741Z,11.70
2022-11-17T04:49:15.810Z,7.40
2022-11-17T04:50:15.707Z,8.90
2022-11-17T04:51:15.799Z,7.50
2022-11-17T04:52:15.692Z,9.20
2022-11-17T04:53:15.779Z,6.90
2022-11-17T04:54:15.660Z,7.90
2022-11-17T04:55:15.816Z,11.10
2022-11-17T04:56:15.633Z,9.10
2022-11-17T04:57:15.705Z,7.00
2022-11-17T04:58:15.613Z,9.30
2022-11-17T04:59:15.713Z,7.70
2022-11-17T05:00:15.577Z,7.20
2022-11-17T05:01:15.726Z,8.00
2022-11-17T05:02:15.596Z,8.60
2022-11-17T05:03:15.715Z,9.00
2022-11-17T05:04:15.526Z,8.70
2022-11-17T05:05:15.704Z,9.20
2022-11-17T05:06:15.495Z,8.20
2022-11-17T05:07:15.586Z,10.30
2022-11-17T05:08:15.468Z,9.80
2022-11-17T05:09:15.633Z,8.90
2022-11-17T05:10:15.437Z,12.20
2022-11-17T05:11:15.688Z,12.10
2022-11-17T05:12:15.415Z,16.90
2022-11-17T05:13:16.557Z,48.10
2022-11-17T05:14:15.389Z,32.90
2022-11-17T05:15:15.643Z,19.20
2022-11-17T05:16:15.369Z,14.20
2022-11-17T05:17:15.404Z,14.40
2022-11-17T05:18:15.347Z,15.70
2022-11-17T05:19:15.437Z,12.60
2022-11-17T05:20:15.307Z,9.90
2022-11-17T05:21:15.429Z,8.80
2022-11-17T05:22:15.295Z,9.10
2022-11-17T05:23:15.422Z,7.50
2022-11-17T05:24:15.254Z,10.40
2022-11-17T05:25:15.344Z,10.90
2022-11-17T05:26:15.227Z,9.30
2022-11-17T05:27:15.348Z,9.60
2022-11-17T05:28:15.215Z,7.20
2022-11-17T05:29:15.337Z,8.60
2022-11-17T05:30:15.178Z,8.30
2022-11-17T05:31:15.302Z,9.40
2022-11-17T05:32:15.149Z,10.90
2022-11-17T05:33:17.295Z,13.40
2022-11-17T05:34:15.127Z,13.50
2022-11-17T05:35:15.226Z,12.60
2022-11-17T05:36:15.096Z,10.00
2022-11-17T05:37:15.155Z,9.60
2022-11-17T05:38:15.070Z,11.10
2022-11-17T05:39:16.290Z,9.70
2022-11-17T05:40:15.046Z,9.60
2022-11-17T05:41:15.127Z,10.10
2022-11-17T05:42:15.017Z,9.30
2022-11-17T05:43:15.166Z,8.80
2022-11-17T05:44:14.986Z,8.10
2022-11-17T05:45:15.048Z,8.70
2022-11-17T05:46:14.966Z,7.90
2022-11-17T05:47:15.040Z,7.70
2022-11-17T05:48:14.935Z,8.60
2022-11-17T05:49:15.069Z,9.30
2022-11-17T05:50:14.906Z,9.30
2022-11-17T05:51:15.058Z,9.40
2022-11-17T05:52:14.887Z,9.30
2022-11-17T05:53:14.943Z,9.20
2022-11-17T05:54:14.855Z,8.70
2022-11-17T05:55:14.976Z,10.00
2022-11-17T05:56:14.827Z,9.60
2022-11-17T05:57:14.960Z,11.50
2022-11-17T05:58:14.794Z,8.00
2022-11-17T05:59:14.968Z,9.90
2022-11-17T06:00:14.779Z,10.40
2022-11-17T06:01:16.988Z,7.20
2022-11-17T06:02:14.751Z,9.10
2022-11-17T06:03:14.882Z,8.40
2022-11-17T06:04:14.756Z,8.10
2022-11-17T06:05:19.966Z,10.90
2022-11-17T06:06:15.696Z,9.40
2022-11-17T06:07:14.824Z,11.50
2022-11-17T06:08:14.664Z,13.20
2022-11-17T06:09:15.716Z,12.80
2022-11-17T06:10:14.640Z,11.90
2022-11-17T06:11:14.645Z,12.50
2022-11-17T06:12:14.606Z,11.30
2022-11-17T06:13:14.764Z,8.60
2022-11-17T06:14:14.585Z,8.40
2022-11-17T06:15:14.637Z,10.10
2022-11-17T06:16:14.555Z,8.00
2022-11-17T06:17:36.622Z,6.30
2022-11-17T06:18:14.534Z,9.10
2022-11-17T06:19:14.605Z,9.30
2022-11-17T06:20:14.520Z,7.60
2022-11-17T06:21:14.574Z,8.00
2022-11-17T06:22:14.504Z,6.00
2022-11-17T06:23:14.564Z,8.40
2022-11-17T06:24:14.451Z,6.90
2022-11-17T06:25:14.544Z,7.70
2022-11-17T06:26:14.432Z,8.10
2022-11-17T06:27:14.509Z,7.80
2022-11-17T06:28:14.404Z,7.80
2022-11-17T06:29:14.474Z,7.50
2022-11-17T06:30:14.385Z,6.80
2022-11-17T06:31:14.386Z,7.00
2022-11-17T06:32:14.361Z,9.90
2022-11-17T06:33:14.454Z,8.80
2022-11-17T06:34:14.354Z,7.70
2022-11-17T06:35:14.425Z,8.30
2022-11-17T06:36:14.302Z,10.50
2022-11-17T06:37:14.333Z,6.90
2022-11-17T06:38:14.261Z,7.80
2022-11-17T06:39:14.394Z,7.00
2022-11-17T06:40:14.233Z,9.00
2022-11-17T06:41:14.351Z,11.00
2022-11-17T06:42:14.215Z,8.10
2022-11-17T06:43:14.264Z,8.60
2022-11-17T06:44:14.185Z,9.10
2022-11-17T06:45:14.237Z,9.10
2022-11-17T06:46:14.153Z,7.90
2022-11-17T06:47:14.194Z,9.00
2022-11-17T06:48:14.127Z,7.40
2022-11-17T06:49:14.311Z,8.60
2022-11-17T06:50:14.131Z,9.10
2022-11-17T06:51:14.181Z,10.40
2022-11-17T06:52:14.082Z,9.00
2022-11-17T06:53:14.169Z,8.80
2022-11-17T06:54:14.093Z,13.20
2022-11-17T06:55:15.102Z,9.60
2022-11-17T06:56:14.051Z,10.20
2022-11-17T06:57:14.319Z,9.90
2022-11-17T06:58:14.020Z,9.80
2022-11-17T06:59:14.090Z,10.00
2022-11-17T07:00:13.992Z,10.10
2022-11-17T07:01:14.077Z,9.90
2022-11-17T07:02:13.988Z,10.50
2022-11-17T07:03:14.100Z,11.50
2022-11-17T07:04:13.939Z,9.70
2022-11-17T07:05:14.037Z,11.20
2022-11-17T07:06:13.929Z,9.70
2022-11-17T07:07:14.024Z,9.50
2022-11-17T07:08:13.921Z,9.30
2022-11-17T07:09:13.937Z,8.80
2022-11-17T07:10:13.882Z,9.60
2022-11-17T07:11:13.876Z,8.20
2022-11-17T07:12:13.857Z,9.70
2022-11-17T07:13:13.888Z,11.00
2022-11-17T07:14:13.807Z,9.60
2022-11-17T07:15:13.881Z,10.40
2022-11-17T07:16:17.403Z,9.70
2022-11-17T07:17:14.808Z,8.70
2022-11-17T07:18:13.839Z,11.50
2022-11-17T07:19:13.739Z,9.50
2022-11-17T07:20:13.850Z,11.10
2022-11-17T07:21:13.767Z,8.90
2022-11-17T07:22:13.748Z,9.30
2022-11-17T07:23:13.745Z,9.70
2022-11-17T07:24:13.777Z,7.70
2022-11-17T07:25:16.166Z,9.70
2022-11-17T07:26:14.739Z,9.60
2022-11-17T07:27:13.729Z,9.40
2022-11-17T07:28:13.618Z,8.20
2022-11-17T07:29:13.700Z,11.30
2022-11-17T07:30:13.593Z,9.60
2022-11-17T07:31:13.615Z,12.10
2022-11-17T07:32:13.599Z,9.00
2022-11-17T07:33:15.749Z,10.40
2022-11-17T07:34:13.546Z,9.60
2022-11-17T07:35:13.693Z,10.20
2022-11-17T07:36:13.508Z,10.10
2022-11-17T07:37:13.557Z,9.20
2022-11-17T07:38:13.508Z,8.50
2022-11-17T07:39:18.444Z,9.50
2022-11-17T07:40:14.481Z,15.80
2022-11-17T07:41:13.476Z,8.30
2022-11-17T07:42:13.438Z,10.50
2022-11-17T07:43:13.507Z,10.30
2022-11-17T07:44:13.457Z,10.10
2022-11-17T07:45:13.397Z,9.50
2022-11-17T07:46:13.367Z,8.90
2022-11-17T07:47:13.428Z,10.60
2022-11-17T07:48:13.347Z,11.50
2022-11-17T07:49:13.468Z,10.30
2022-11-17T07:50:13.357Z,8.60
2022-11-17T07:51:13.573Z,9.00
2022-11-17T07:52:13.326Z,9.30
2022-11-17T07:53:14.136Z,10.30
2022-11-17T07:54:13.875Z,8.80
2022-11-17T07:55:17.826Z,10.50
2022-11-17T07:56:13.829Z,9.20
2022-11-17T07:57:13.839Z,10.00
2022-11-17T07:58:13.526Z,9.30
2022-11-17T07:59:20.003Z,9.70
2022-11-17T08:00:14.580Z,9.20
2022-11-17T08:01:13.339Z,8.60
2022-11-17T08:02:13.266Z,8.80
2022-11-17T08:03:13.403Z,8.80
2022-11-17T08:04:13.136Z,9.20
2022-11-17T08:05:15.029Z,10.40
2022-11-17T08:06:13.129Z,8.40
2022-11-17T08:07:13.198Z,10.40
2022-11-17T08:08:13.126Z,11.00
2022-11-17T08:09:14.236Z,9.30
2022-11-17T08:10:13.384Z,12.20
2022-11-17T08:11:14.104Z,11.30
2022-11-17T08:12:13.165Z,12.50
2022-11-17T08:13:13.096Z,12.60
2022-11-17T08:14:13.098Z,10.30
2022-11-17T08:15:13.155Z,13.60
2022-11-17T08:16:13.021Z,10.80
2022-11-17T08:17:13.036Z,10.60
2022-11-17T08:18:17.499Z,12.00
2022-11-17T08:19:12.933Z,12.70
2022-11-17T08:20:22.911Z,11.30
2022-11-17T08:21:12.936Z,10.70
2022-11-17T08:22:12.955Z,12.90
2022-11-17T08:23:12.908Z,12.60
2022-11-17T08:24:12.973Z,12.80
2022-11-17T08:25:12.874Z,15.90
2022-11-17T08:26:12.966Z,15.50
2022-11-17T08:27:12.854Z,15.60
2022-11-17T08:28:13.925Z,13.10
2022-11-17T08:29:12.827Z,13.60
2022-11-17T08:30:13.855Z,13.70
2022-11-17T08:31:12.802Z,15.00
2022-11-17T08:32:12.886Z,14.30
2022-11-17T08:33:12.783Z,16.70
2022-11-17T08:34:12.834Z,15.40
2022-11-17T08:35:12.715Z,15.60
2022-11-17T08:36:12.754Z,17.90
2022-11-17T08:37:12.724Z,19.50
2022-11-17T08:38:12.825Z,18.70
2022-11-17T08:39:12.905Z,20.80
2022-11-17T08:40:12.805Z,18.00
2022-11-17T08:41:12.651Z,18.90
2022-11-17T08:42:12.703Z,18.80
2022-11-17T08:43:12.648Z,22.30
2022-11-17T08:44:12.692Z,21.20
2022-11-17T08:45:12.626Z,18.10
2022-11-17T08:46:12.645Z,20.00
2022-11-17T08:47:12.611Z,21.60
2022-11-17T08:48:12.653Z,18.30
2022-11-17T08:49:12.543Z,19.30
2022-11-17T08:50:13.630Z,22.50
2022-11-17T08:51:12.524Z,20.90
2022-11-17T08:52:12.573Z,19.70
2022-11-17T08:53:12.621Z,16.90
2022-11-17T08:54:12.593Z,19.10
2022-11-17T08:55:12.533Z,16.90
2022-11-17T08:56:12.553Z,17.70
2022-11-17T08:57:12.527Z,17.00
2022-11-17T08:58:12.489Z,15.50
2022-11-17T08:59:12.417Z,15.30
2022-11-17T09:00:12.518Z,16.80
2022-11-17T09:01:12.452Z,16.40
2022-11-17T09:02:12.527Z,16.00
2022-11-17T09:03:12.356Z,14.00
2022-11-17T09:04:12.438Z,16.90
2022-11-17T09:05:12.331Z,15.90
2022-11-17T09:06:12.349Z,17.10
2022-11-17T09:07:12.360Z,14.70
2022-11-17T09:08:43.139Z,15.80
2022-11-17T09:09:14.362Z,17.90
2022-11-17T09:10:12.293Z,17.20
2022-11-17T09:11:34.287Z,16.60
2022-11-17T09:12:12.237Z,13.10
2022-11-17T09:13:33.337Z,15.00
2022-11-17T09:14:12.208Z,12.40
2022-11-17T09:15:12.212Z,13.20
2022-11-17T09:16:12.159Z,13.70
2022-11-17T09:17:12.231Z,13.40
2022-11-17T09:18:12.150Z,11.90
2022-11-17T09:19:13.222Z,14.00
2022-11-17T09:20:12.107Z,17.20
2022-11-17T09:21:12.154Z,16.70
2022-11-17T09:22:12.118Z,18.10
2022-11-17T09:23:12.165Z,22.10
2022-11-17T09:24:12.079Z,18.60
2022-11-17T09:25:13.649Z,18.40
2022-11-17T09:26:12.049Z,17.50
2022-11-17T09:27:12.088Z,17.30
2022-11-17T09:28:12.079Z,18.10
2022-11-17T09:29:12.126Z,19.20
2022-11-17T09:30:11.998Z,19.30
2022-11-17T09:31:12.238Z,21.00
2022-11-17T09:32:11.957Z,17.00
2022-11-17T09:33:12.029Z,19.40
2022-11-17T09:34:11.971Z,19.40
2022-11-17T09:35:11.958Z,22.10
2022-11-17T09:36:11.896Z,21.10
2022-11-17T09:37:12.029Z,21.20
2022-11-17T09:38:11.864Z,23.60
2022-11-17T09:39:12.905Z,25.30
2022-11-17T09:40:11.868Z,22.20
2022-11-17T09:41:33.898Z,21.60
2022-11-17T09:42:11.808Z,21.10
2022-11-17T09:43:11.852Z,18.70
2022-11-17T09:44:11.799Z,21.70
2022-11-17T09:45:11.787Z,19.30
2022-11-17T09:46:11.821Z,20.10
2022-11-17T09:47:11.737Z,21.40
2022-11-17T09:48:39.584Z,23.60
2022-11-17T09:49:12.815Z,20.30
2022-11-17T09:50:11.719Z,20.20
2022-11-17T09:51:11.757Z,20.70
2022-11-17T09:52:11.673Z,17.70
2022-11-17T09:53:12.698Z,19.20
2022-11-17T09:54:11.679Z,18.20
2022-11-17T09:55:11.758Z,16.70
2022-11-17T09:56:11.620Z,18.50
2022-11-17T09:57:11.698Z,18.70
2022-11-17T09:58:11.619Z,21.00
2022-11-17T09:59:11.625Z,19.10
2022-11-17T10:00:11.586Z,18.90
2022-11-17T10:01:11.678Z,20.30
2022-11-17T10:02:11.567Z,22.30
2022-11-17T10:03:11.659Z,19.40
2022-11-17T10:04:11.505Z,18.40
2022-11-17T10:05:11.868Z,18.20
2022-11-17T10:06:11.477Z,16.20
2022-11-17T10:07:11.553Z,15.30
2022-11-17T10:08:11.476Z,16.60
2022-11-17T10:09:11.468Z,15.00
2022-11-17T10:10:11.447Z,16.90
2022-11-17T10:11:11.489Z,16.70
2022-11-17T10:12:11.418Z,17.90
2022-11-17T10:13:11.478Z,16.20
2022-11-17T10:14:11.379Z,14.80
2022-11-17T10:15:11.407Z,14.80
2022-11-17T10:16:11.348Z,15.40
2022-11-17T10:17:12.349Z,14.80
2022-11-17T10:18:11.319Z,17.40
2022-11-17T10:19:12.417Z,18.00
2022-11-17T10:20:11.307Z,15.20
2022-11-17T10:21:11.368Z,18.00
2022-11-17T10:22:11.260Z,19.20
2022-11-17T10:23:11.376Z,19.90
2022-11-17T10:24:11.263Z,17.00
2022-11-17T10:25:11.329Z,21.00
2022-11-17T10:26:11.233Z,17.50
2022-11-17T10:27:11.306Z,16.60
2022-11-17T10:28:11.178Z,17.50
2022-11-17T10:29:11.227Z,12.70
2022-11-17T10:30:11.146Z,16.10
2022-11-17T10:31:11.276Z,13.70
2022-11-17T10:32:11.148Z,14.80
2022-11-17T10:33:11.248Z,13.60
2022-11-17T10:34:11.117Z,15.60
2022-11-17T10:35:11.148Z,13.40
2022-11-17T10:36:11.107Z,15.40
2022-11-17T10:37:11.144Z,13.10
2022-11-17T10:38:11.044Z,12.90
2022-11-17T10:39:17.515Z,12.40
2022-11-17T10:40:12.037Z,15.80
2022-11-17T10:41:11.139Z,13.70
2022-11-17T10:42:10.987Z,12.60
2022-11-17T10:43:11.078Z,12.70
2022-11-17T10:44:10.956Z,15.90
2022-11-17T10:45:11.016Z,14.30
2022-11-17T10:46:11.319Z,13.00
2022-11-17T10:47:11.046Z,15.20
2022-11-17T10:48:10.896Z,14.50
2022-11-17T10:49:11.017Z,15.40
2022-11-17T10:50:11.444Z,12.40
2022-11-17T10:51:10.955Z,13.10
2022-11-17T10:52:10.868Z,12.10
2022-11-17T10:53:12.872Z,13.10
2022-11-17T10:54:10.845Z,14.40
2022-11-17T10:55:10.937Z,12.00
2022-11-17T10:56:10.793Z,13.90
2022-11-17T10:57:10.907Z,12.60
2022-11-17T10:58:10.788Z,13.10
2022-11-17T10:59:10.835Z,15.10
2022-11-17T11:00:10.769Z,15.20
2022-11-17T11:01:10.826Z,14.70
2022-11-17T11:02:10.716Z,13.80
2022-11-17T11:03:10.736Z,12.80
2022-11-17T11:04:10.686Z,18.00
2022-11-17T11:05:10.762Z,15.50
2022-11-17T11:06:16.164Z,15.50
2022-11-17T11:07:11.732Z,12.30
2022-11-17T11:08:10.675Z,13.40
2022-11-17T11:09:10.668Z,13.70
2022-11-17T11:10:10.687Z,12.10
2022-11-17T11:11:10.594Z,13.60
2022-11-17T11:12:10.595Z,12.40
2022-11-17T11:13:10.615Z,13.90
2022-11-17T11:14:10.614Z,15.10
2022-11-17T11:15:10.566Z,13.10
2022-11-17T11:16:10.625Z,13.30
2022-11-17T11:17:10.507Z,12.30
2022-11-17T11:18:11.576Z,12.80
2022-11-17T11:19:10.797Z,13.90
2022-11-17T11:20:11.592Z,44.10
2022-11-17T11:21:10.479Z,19.80
2022-11-17T11:22:10.465Z,14.80
2022-11-17T11:23:10.456Z,13.80
2022-11-17T11:24:10.478Z,15.40
2022-11-17T11:25:10.436Z,16.20
2022-11-17T11:26:10.493Z,13.40
2022-11-17T11:27:10.408Z,13.60
2022-11-17T11:28:10.415Z,12.90
2022-11-17T11:29:10.769Z,15.50
2022-11-17T11:30:10.427Z,27.10
2022-11-17T11:31:10.365Z,12.60
2022-11-17T11:32:10.334Z,12.80
2022-11-17T11:33:10.329Z,12.80
2022-11-17T11:34:10.366Z,13.70
2022-11-17T11:35:16.046Z,11.90
2022-11-17T11:36:11.287Z,12.20
2022-11-17T11:37:10.298Z,8.90
2022-11-17T11:38:10.227Z,9.10
2022-11-17T11:39:10.547Z,11.60
2022-11-17T11:40:10.225Z,8.60
2022-11-17T11:41:10.329Z,13.40
2022-11-17T11:42:10.214Z,11.10
2022-11-17T11:43:10.226Z,9.70
2022-11-17T11:44:10.135Z,13.30
2022-11-17T11:45:10.225Z,13.40
2022-11-17T11:46:10.135Z,12.70
2022-11-17T11:47:10.135Z,10.30
2022-11-17T11:48:10.126Z,10.70
2022-11-17T11:49:10.452Z,10.40
2022-11-17T11:50:10.065Z,12.30
2022-11-17T11:51:10.174Z,11.30
2022-11-17T11:52:10.055Z,10.70
2022-11-17T11:53:10.093Z,11.60
2022-11-17T11:54:10.349Z,30.50
2022-11-17T11:55:10.113Z,13.40
2022-11-17T11:56:09.990Z,14.30
2022-11-17T11:57:11.043Z,10.40
2022-11-17T11:58:09.949Z,12.20
2022-11-17T11:59:10.013Z,9.10
2022-11-17T12:00:09.965Z,9.90
2022-11-17T12:01:10.987Z,11.80
2022-11-17T12:02:09.933Z,12.70
2022-11-17T12:03:10.010Z,11.70
2022-11-17T12:04:11.545Z,11.60
2022-11-17T12:05:11.973Z,11.70
2022-11-17T12:06:09.883Z,11.90
2022-11-17T12:07:09.935Z,10.70
2022-11-17T12:08:11.020Z,9.40
2022-11-17T12:09:09.901Z,12.50
2022-11-17T12:10:09.785Z,8.80
2022-11-17T12:11:10.834Z,12.00
2022-11-17T12:12:09.790Z,10.60
2022-11-17T12:13:09.824Z,10.80
2022-11-17T12:14:09.996Z,10.30
2022-11-17T12:15:10.762Z,10.10
2022-11-17T12:16:10.133Z,10.60
2022-11-17T12:17:31.836Z,15.90
2022-11-17T12:18:10.368Z,8.90
2022-11-17T12:19:10.793Z,10.90
2022-11-17T12:20:11.081Z,9.30
2022-11-17T12:21:10.712Z,10.10
2022-11-17T12:22:09.642Z,12.60
2022-11-17T12:23:10.937Z,12.30
2022-11-17T12:24:10.881Z,16.80
2022-11-17T12:25:09.703Z,11.30
2022-11-17T12:26:09.626Z,13.00
2022-11-17T12:27:09.613Z,11.30
2022-11-17T12:28:09.564Z,11.40
2022-11-17T12:29:37.833Z,10.80
2022-11-17T12:30:09.513Z,10.50
2022-11-17T12:31:10.541Z,9.90
2022-11-17T12:32:09.515Z,11.10
2022-11-17T12:33:09.560Z,12.20
2022-11-17T12:34:09.785Z,10.20
2022-11-17T12:35:12.691Z,13.20
2022-11-17T12:36:09.452Z,12.50
2022-11-17T12:37:09.496Z,10.50
2022-11-17T12:38:09.394Z,10.40
2022-11-17T12:39:09.483Z,14.00
2022-11-17T12:40:09.391Z,11.90
2022-11-17T12:41:09.422Z,9.90
2022-11-17T12:42:09.513Z,8.90
2022-11-17T12:43:09.430Z,8.30
2022-11-17T12:44:09.713Z,9.80
2022-11-17T12:45:09.326Z,9.00
2022-11-17T12:46:09.324Z,11.30
2022-11-17T12:47:09.347Z,10.00
2022-11-17T12:48:32.360Z,10.30
2022-11-17T12:49:10.308Z,11.10
2022-11-17T12:50:09.264Z,9.40
2022-11-17T12:51:09.251Z,9.50
2022-11-17T12:52:09.352Z,7.00
2022-11-17T12:53:09.203Z,6.30
2022-11-17T12:54:09.425Z,5.70
2022-11-17T12:55:09.201Z,6.20
2022-11-17T12:56:09.199Z,8.60
2022-11-17T12:57:09.187Z,6.90
2022-11-17T12:58:13.494Z,6.90
2022-11-17T12:59:09.141Z,8.10
2022-11-17T13:00:10.152Z,7.30
2022-11-17T13:01:09.177Z,7.20
2022-11-17T13:02:30.151Z,7.80
2022-11-17T13:03:09.089Z,6.30
2022-11-17T13:04:09.142Z,8.70
2022-11-17T13:05:09.057Z,5.60
2022-11-17T13:06:33.781Z,5.50